Pringle, Pennsylvania
Current Conditions -  °F | °C
As of 2:54 AM on Friday 19 Dec 2014 (Local Time) from KAVP Reporting Station
Overcast Overcast  
Wind Chill: 25°   Ceiling: 2600
Heat Index: 34°   Visibility: 10mi
Dew Point: 24°   Wind: 12mph
Humidity: 67%   Direction: 300°WNW
Pressure: 29.98"   Gusts: NA
Location:  41.2768°N, 75.8997°W
Report Text: KAVP 190754Z AUTO 30010KT 10SM BKN026 OVC031 01/M04 A2998 RMK AO2 SLP158 T00111044
Loading
Personal Weather Stations






























Interactive Weather Map New forecast layout! Learn more

10-Day Weather Forecast

Advertisements
Track Severe Weather on mobile